sensor_id;sensor_type;location;lat;lon;timestamp;P1;durP1;ratioP1;P2;durP2;ratioP2
79460;SDS011;68929;42.666;23.324;2023-08-30T00:00:51;13.13;;;11.70;;
79460;SDS011;68929;42.666;23.324;2023-08-30T00:03:18;12.40;;;11.02;;
79460;SDS011;68929;42.666;23.324;2023-08-30T00:05:43;11.57;;;10.15;;
79460;SDS011;68929;42.666;23.324;2023-08-30T00:08:09;12.88;;;8.95;;
79460;SDS011;68929;42.666;23.324;2023-08-30T00:10:34;10.10;;;9.10;;
79460;SDS011;68929;42.666;23.324;2023-08-30T00:13:00;11.57;;;8.88;;
79460;SDS011;68929;42.666;23.324;2023-08-30T00:15:25;10.02;;;8.48;;
79460;SDS011;68929;42.666;23.324;2023-08-30T00:17:51;11.25;;;8.93;;
79460;SDS011;68929;42.666;23.324;2023-08-30T00:20:19;13.05;;;10.05;;
79460;SDS011;68929;42.666;23.324;2023-08-30T00:22:46;9.02;;;8.05;;
79460;SDS011;68929;42.666;23.324;2023-08-30T00:25:12;15.88;;;9.60;;
79460;SDS011;68929;42.666;23.324;2023-08-30T00:27:37;12.88;;;9.60;;
79460;SDS011;68929;42.666;23.324;2023-08-30T00:30:03;13.75;;;9.57;;
79460;SDS011;68929;42.666;23.324;2023-08-30T00:32:29;12.63;;;8.65;;
79460;SDS011;68929;42.666;23.324;2023-08-30T00:34:54;11.57;;;9.20;;
79460;SDS011;68929;42.666;23.324;2023-08-30T00:37:19;11.85;;;9.27;;
79460;SDS011;68929;42.666;23.324;2023-08-30T00:39:45;9.45;;;8.55;;
79460;SDS011;68929;42.666;23.324;2023-08-30T00:42:10;10.70;;;8.05;;
79460;SDS011;68929;42.666;23.324;2023-08-30T00:44:36;10.48;;;9.40;;
79460;SDS011;68929;42.666;23.324;2023-08-30T00:47:01;9.65;;;8.38;;
79460;SDS011;68929;42.666;23.324;2023-08-30T00:49:28;9.00;;;8.10;;
79460;SDS011;68929;42.666;23.324;2023-08-30T00:51:56;8.13;;;7.32;;
79460;SDS011;68929;42.666;23.324;2023-08-30T00:54:26;9.10;;;8.20;;
79460;SDS011;68929;42.666;23.324;2023-08-30T00:56:52;12.55;;;9.20;;
79460;SDS011;68929;42.666;23.324;2023-08-30T00:59:19;12.05;;;8.18;;
79460;SDS011;68929;42.666;23.324;2023-08-30T01:01:46;9.50;;;8.23;;
79460;SDS011;68929;42.666;23.324;2023-08-30T01:04:13;12.20;;;8.82;;
79460;SDS011;68929;42.666;23.324;2023-08-30T01:06:39;11.70;;;8.93;;
79460;SDS011;68929;42.666;23.324;2023-08-30T01:09:04;12.73;;;8.32;;
79460;SDS011;68929;42.666;23.324;2023-08-30T01:14:22;11.90;;;8.38;;
79460;SDS011;68929;42.666;23.324;2023-08-30T01:16:52;9.38;;;7.25;;
79460;SDS011;68929;42.666;23.324;2023-08-30T01:20:04;12.23;;;8.43;;
79460;SDS011;68929;42.666;23.324;2023-08-30T01:28:18;11.55;;;8.85;;
79460;SDS011;68929;42.666;23.324;2023-08-30T01:30:46;10.75;;;7.25;;
79460;SDS011;68929;42.666;23.324;2023-08-30T01:33:13;8.57;;;7.15;;
79460;SDS011;68929;42.666;23.324;2023-08-30T01:38:09;9.90;;;7.40;;
79460;SDS011;68929;42.666;23.324;2023-08-30T01:40:36;12.07;;;7.35;;
79460;SDS011;68929;42.666;23.324;2023-08-30T01:43:04;8.93;;;6.78;;
79460;SDS011;68929;42.666;23.324;2023-08-30T01:45:41;15.00;;;8.32;;
79460;SDS011;68929;42.666;23.324;2023-08-30T01:48:11;10.02;;;7.68;;
79460;SDS011;68929;42.666;23.324;2023-08-30T01:50:39;10.40;;;7.82;;
79460;SDS011;68929;42.666;23.324;2023-08-30T01:53:06;7.95;;;7.13;;
79460;SDS011;68929;42.666;23.324;2023-08-30T01:55:32;10.05;;;7.97;;
79460;SDS011;68929;42.666;23.324;2023-08-30T01:57:59;8.30;;;6.70;;
79460;SDS011;68929;42.666;23.324;2023-08-30T02:00:24;8.13;;;6.78;;
79460;SDS011;68929;42.666;23.324;2023-08-30T02:02:50;9.32;;;6.93;;
79460;SDS011;68929;42.666;23.324;2023-08-30T02:05:15;9.10;;;7.30;;
79460;SDS011;68929;42.666;23.324;2023-08-30T02:07:51;8.65;;;7.43;;
79460;SDS011;68929;42.666;23.324;2023-08-30T02:10:24;12.00;;;7.03;;
79460;SDS011;68929;42.666;23.324;2023-08-30T02:12:56;9.98;;;7.07;;
79460;SDS011;68929;42.666;23.324;2023-08-30T02:15:24;8.20;;;6.75;;
79460;SDS011;68929;42.666;23.324;2023-08-30T02:17:51;9.38;;;6.93;;
79460;SDS011;68929;42.666;23.324;2023-08-30T02:20:19;9.70;;;7.68;;
79460;SDS011;68929;42.666;23.324;2023-08-30T02:22:44;11.02;;;7.35;;
79460;SDS011;68929;42.666;23.324;2023-08-30T02:25:10;10.02;;;6.90;;
79460;SDS011;68929;42.666;23.324;2023-08-30T02:27:35;11.45;;;7.40;;
79460;SDS011;68929;42.666;23.324;2023-08-30T02:30:01;10.75;;;7.80;;
79460;SDS011;68929;42.666;23.324;2023-08-30T02:32:27;8.43;;;7.18;;
79460;SDS011;68929;42.666;23.324;2023-08-30T02:34:53;11.50;;;7.78;;
79460;SDS011;68929;42.666;23.324;2023-08-30T02:37:19;9.27;;;7.00;;
79460;SDS011;68929;42.666;23.324;2023-08-30T02:39:44;8.02;;;7.00;;
79460;SDS011;68929;42.666;23.324;2023-08-30T02:42:10;12.50;;;8.13;;
79460;SDS011;68929;42.666;23.324;2023-08-30T02:44:35;10.13;;;7.70;;
79460;SDS011;68929;42.666;23.324;2023-08-30T02:47:01;9.88;;;7.78;;
79460;SDS011;68929;42.666;23.324;2023-08-30T02:49:26;11.80;;;8.05;;
79460;SDS011;68929;42.666;23.324;2023-08-30T02:51:51;10.45;;;8.10;;
79460;SDS011;68929;42.666;23.324;2023-08-30T02:54:17;11.38;;;8.00;;
79460;SDS011;68929;42.666;23.324;2023-08-30T02:56:43;8.38;;;6.70;;
79460;SDS011;68929;42.666;23.324;2023-08-30T02:59:09;10.55;;;8.02;;
79460;SDS011;68929;42.666;23.324;2023-08-30T03:01:35;12.07;;;6.95;;
79460;SDS011;68929;42.666;23.324;2023-08-30T03:04:01;12.07;;;7.80;;
79460;SDS011;68929;42.666;23.324;2023-08-30T03:06:26;11.98;;;8.50;;
79460;SDS011;68929;42.666;23.324;2023-08-30T03:08:55;12.07;;;8.95;;
79460;SDS011;68929;42.666;23.324;2023-08-30T03:11:20;14.32;;;9.40;;
79460;SDS011;68929;42.666;23.324;2023-08-30T03:13:49;17.50;;;9.38;;
79460;SDS011;68929;42.666;23.324;2023-08-30T03:16:19;9.80;;;8.18;;
79460;SDS011;68929;42.666;23.324;2023-08-30T03:18:45;14.13;;;9.23;;
79460;SDS011;68929;42.666;23.324;2023-08-30T03:21:11;13.43;;;9.10;;
79460;SDS011;68929;42.666;23.324;2023-08-30T03:23:37;9.75;;;8.48;;
79460;SDS011;68929;42.666;23.324;2023-08-30T03:26:15;14.65;;;8.25;;
79460;SDS011;68929;42.666;23.324;2023-08-30T03:28:41;14.23;;;8.15;;
79460;SDS011;68929;42.666;23.324;2023-08-30T03:31:17;9.48;;;7.05;;
79460;SDS011;68929;42.666;23.324;2023-08-30T03:33:44;13.10;;;7.70;;
79460;SDS011;68929;42.666;23.324;2023-08-30T03:36:11;16.90;;;10.80;;
79460;SDS011;68929;42.666;23.324;2023-08-30T03:38:37;12.70;;;9.63;;
79460;SDS011;68929;42.666;23.324;2023-08-30T03:41:03;14.48;;;9.50;;
79460;SDS011;68929;42.666;23.324;2023-08-30T03:43:32;16.38;;;8.90;;
79460;SDS011;68929;42.666;23.324;2023-08-30T03:45:59;12.80;;;8.48;;
79460;SDS011;68929;42.666;23.324;2023-08-30T03:48:25;12.93;;;8.52;;
79460;SDS011;68929;42.666;23.324;2023-08-30T03:50:51;10.75;;;7.78;;
79460;SDS011;68929;42.666;23.324;2023-08-30T03:53:17;14.23;;;7.25;;
79460;SDS011;68929;42.666;23.324;2023-08-30T03:55:42;16.48;;;8.52;;
79460;SDS011;68929;42.666;23.324;2023-08-30T03:58:07;18.05;;;7.95;;
79460;SDS011;68929;42.666;23.324;2023-08-30T04:00:35;15.52;;;8.02;;
79460;SDS011;68929;42.666;23.324;2023-08-30T04:03:01;12.98;;;7.65;;
79460;SDS011;68929;42.666;23.324;2023-08-30T04:05:31;13.77;;;7.55;;
79460;SDS011;68929;42.666;23.324;2023-08-30T04:10:23;11.73;;;6.73;;
79460;SDS011;68929;42.666;23.324;2023-08-30T04:12:49;14.18;;;6.50;;
79460;SDS011;68929;42.666;23.324;2023-08-30T04:15:14;8.52;;;5.60;;
79460;SDS011;68929;42.666;23.324;2023-08-30T04:17:40;11.65;;;7.13;;
79460;SDS011;68929;42.666;23.324;2023-08-30T04:20:05;18.25;;;7.55;;
79460;SDS011;68929;42.666;23.324;2023-08-30T04:22:31;9.40;;;6.32;;
79460;SDS011;68929;42.666;23.324;2023-08-30T04:25:05;15.50;;;5.78;;
79460;SDS011;68929;42.666;23.324;2023-08-30T04:27:32;17.27;;;8.45;;
79460;SDS011;68929;42.666;23.324;2023-08-30T04:29:57;12.20;;;8.50;;
79460;SDS011;68929;42.666;23.324;2023-08-30T04:32:23;10.57;;;7.50;;
79460;SDS011;68929;42.666;23.324;2023-08-30T04:34:48;14.13;;;8.02;;
79460;SDS011;68929;42.666;23.324;2023-08-30T04:37:13;16.20;;;11.40;;
79460;SDS011;68929;42.666;23.324;2023-08-30T04:39:39;14.68;;;10.23;;
79460;SDS011;68929;42.666;23.324;2023-08-30T04:42:05;14.38;;;9.80;;
79460;SDS011;68929;42.666;23.324;2023-08-30T04:44:31;14.88;;;11.23;;
79460;SDS011;68929;42.666;23.324;2023-08-30T04:46:57;14.05;;;10.10;;
79460;SDS011;68929;42.666;23.324;2023-08-30T04:49:22;11.65;;;7.90;;
79460;SDS011;68929;42.666;23.324;2023-08-30T04:51:50;14.55;;;10.55;;
79460;SDS011;68929;42.666;23.324;2023-08-30T04:54:15;17.10;;;11.32;;
79460;SDS011;68929;42.666;23.324;2023-08-30T04:56:41;18.38;;;11.20;;
79460;SDS011;68929;42.666;23.324;2023-08-30T04:59:07;23.00;;;10.43;;
79460;SDS011;68929;42.666;23.324;2023-08-30T05:01:32;16.58;;;10.93;;
79460;SDS011;68929;42.666;23.324;2023-08-30T05:03:57;15.30;;;7.40;;
79460;SDS011;68929;42.666;23.324;2023-08-30T05:06:23;7.85;;;5.10;;
79460;SDS011;68929;42.666;23.324;2023-08-30T05:08:48;11.48;;;5.18;;
79460;SDS011;68929;42.666;23.324;2023-08-30T05:11:14;8.82;;;4.40;;
79460;SDS011;68929;42.666;23.324;2023-08-30T05:13:39;9.93;;;5.25;;
79460;SDS011;68929;42.666;23.324;2023-08-30T05:16:05;10.30;;;4.97;;
79460;SDS011;68929;42.666;23.324;2023-08-30T05:18:30;10.50;;;4.97;;
79460;SDS011;68929;42.666;23.324;2023-08-30T05:20:55;9.90;;;5.22;;
79460;SDS011;68929;42.666;23.324;2023-08-30T05:23:21;7.40;;;4.25;;
79460;SDS011;68929;42.666;23.324;2023-08-30T05:25:46;9.82;;;4.60;;
79460;SDS011;68929;42.666;23.324;2023-08-30T05:28:12;9.63;;;4.32;;
79460;SDS011;68929;42.666;23.324;2023-08-30T05:30:38;10.20;;;4.93;;
79460;SDS011;68929;42.666;23.324;2023-08-30T05:33:06;11.48;;;4.82;;
79460;SDS011;68929;42.666;23.324;2023-08-30T05:35:31;6.45;;;4.47;;
79460;SDS011;68929;42.666;23.324;2023-08-30T05:37:57;8.95;;;4.75;;
79460;SDS011;68929;42.666;23.324;2023-08-30T05:40:22;9.52;;;5.28;;
79460;SDS011;68929;42.666;23.324;2023-08-30T05:42:48;12.77;;;5.55;;
79460;SDS011;68929;42.666;23.324;2023-08-30T05:45:15;8.52;;;5.40;;
79460;SDS011;68929;42.666;23.324;2023-08-30T05:47:40;11.77;;;4.97;;
79460;SDS011;68929;42.666;23.324;2023-08-30T05:50:06;7.60;;;5.00;;
79460;SDS011;68929;42.666;23.324;2023-08-30T05:52:32;7.45;;;5.65;;
79460;SDS011;68929;42.666;23.324;2023-08-30T05:54:57;7.60;;;4.50;;
79460;SDS011;68929;42.666;23.324;2023-08-30T05:57:23;9.73;;;4.63;;
79460;SDS011;68929;42.666;23.324;2023-08-30T05:59:49;10.73;;;5.40;;
79460;SDS011;68929;42.666;23.324;2023-08-30T06:02:15;8.25;;;5.10;;
79460;SDS011;68929;42.666;23.324;2023-08-30T06:04:40;4.78;;;4.00;;
79460;SDS011;68929;42.666;23.324;2023-08-30T06:07:06;8.18;;;4.88;;
79460;SDS011;68929;42.666;23.324;2023-08-30T06:09:31;6.15;;;4.40;;
79460;SDS011;68929;42.666;23.324;2023-08-30T06:11:56;7.53;;;4.93;;
79460;SDS011;68929;42.666;23.324;2023-08-30T06:14:22;8.23;;;5.43;;
79460;SDS011;68929;42.666;23.324;2023-08-30T06:16:51;8.30;;;4.70;;
79460;SDS011;68929;42.666;23.324;2023-08-30T06:21:44;6.05;;;4.38;;
79460;SDS011;68929;42.666;23.324;2023-08-30T06:24:09;7.97;;;4.38;;
79460;SDS011;68929;42.666;23.324;2023-08-30T06:26:34;5.22;;;3.95;;
79460;SDS011;68929;42.666;23.324;2023-08-30T06:29:00;7.47;;;5.10;;
79460;SDS011;68929;42.666;23.324;2023-08-30T06:31:25;6.20;;;4.63;;
79460;SDS011;68929;42.666;23.324;2023-08-30T06:33:51;12.57;;;4.75;;
79460;SDS011;68929;42.666;23.324;2023-08-30T06:36:16;8.50;;;5.25;;
79460;SDS011;68929;42.666;23.324;2023-08-30T06:38:43;9.55;;;5.07;;
79460;SDS011;68929;42.666;23.324;2023-08-30T06:41:08;8.88;;;5.20;;
79460;SDS011;68929;42.666;23.324;2023-08-30T06:43:34;7.93;;;5.20;;
79460;SDS011;68929;42.666;23.324;2023-08-30T06:45:59;6.45;;;4.25;;
79460;SDS011;68929;42.666;23.324;2023-08-30T06:48:25;4.55;;;4.07;;
79460;SDS011;68929;42.666;23.324;2023-08-30T06:50:51;5.65;;;4.50;;
79460;SDS011;68929;42.666;23.324;2023-08-30T06:53:16;11.70;;;5.80;;
79460;SDS011;68929;42.666;23.324;2023-08-30T06:55:41;10.48;;;4.45;;
79460;SDS011;68929;42.666;23.324;2023-08-30T06:58:07;8.85;;;4.20;;
79460;SDS011;68929;42.666;23.324;2023-08-30T07:00:32;8.60;;;4.72;;
79460;SDS011;68929;42.666;23.324;2023-08-30T07:02:58;5.97;;;4.35;;
79460;SDS011;68929;42.666;23.324;2023-08-30T07:05:23;11.75;;;4.63;;
79460;SDS011;68929;42.666;23.324;2023-08-30T07:07:48;10.98;;;4.63;;
79460;SDS011;68929;42.666;23.324;2023-08-30T07:10:14;12.18;;;4.38;;
79460;SDS011;68929;42.666;23.324;2023-08-30T07:12:39;7.40;;;5.30;;
79460;SDS011;68929;42.666;23.324;2023-08-30T07:15:05;10.07;;;4.85;;
79460;SDS011;68929;42.666;23.324;2023-08-30T07:17:31;9.45;;;4.50;;
79460;SDS011;68929;42.666;23.324;2023-08-30T07:19:56;7.50;;;4.38;;
79460;SDS011;68929;42.666;23.324;2023-08-30T07:22:33;7.68;;;5.30;;
79460;SDS011;68929;42.666;23.324;2023-08-30T07:24:58;7.00;;;4.30;;
79460;SDS011;68929;42.666;23.324;2023-08-30T07:27:24;6.32;;;4.55;;
79460;SDS011;68929;42.666;23.324;2023-08-30T07:29:49;8.95;;;5.15;;
79460;SDS011;68929;42.666;23.324;2023-08-30T07:32:15;5.53;;;3.30;;
79460;SDS011;68929;42.666;23.324;2023-08-30T07:34:40;5.70;;;4.38;;
79460;SDS011;68929;42.666;23.324;2023-08-30T07:37:15;7.70;;;4.35;;
79460;SDS011;68929;42.666;23.324;2023-08-30T07:39:42;9.57;;;5.57;;
79460;SDS011;68929;42.666;23.324;2023-08-30T07:42:07;7.63;;;4.45;;
79460;SDS011;68929;42.666;23.324;2023-08-30T07:44:32;5.15;;;4.25;;
79460;SDS011;68929;42.666;23.324;2023-08-30T07:46:58;6.72;;;3.80;;
79460;SDS011;68929;42.666;23.324;2023-08-30T07:49:23;6.63;;;3.55;;
79460;SDS011;68929;42.666;23.324;2023-08-30T07:51:48;11.75;;;4.82;;
79460;SDS011;68929;42.666;23.324;2023-08-30T07:54:14;5.75;;;4.18;;
79460;SDS011;68929;42.666;23.324;2023-08-30T07:56:39;13.07;;;4.35;;
79460;SDS011;68929;42.666;23.324;2023-08-30T07:59:05;7.10;;;4.03;;
79460;SDS011;68929;42.666;23.324;2023-08-30T08:01:30;10.63;;;4.45;;
79460;SDS011;68929;42.666;23.324;2023-08-30T08:03:55;9.25;;;3.75;;
79460;SDS011;68929;42.666;23.324;2023-08-30T08:06:21;10.45;;;3.97;;
79460;SDS011;68929;42.666;23.324;2023-08-30T08:08:46;8.25;;;3.70;;
79460;SDS011;68929;42.666;23.324;2023-08-30T08:11:11;5.97;;;3.42;;
79460;SDS011;68929;42.666;23.324;2023-08-30T08:13:37;7.22;;;4.18;;
79460;SDS011;68929;42.666;23.324;2023-08-30T08:16:03;5.75;;;3.83;;
79460;SDS011;68929;42.666;23.324;2023-08-30T08:18:28;9.05;;;3.20;;
79460;SDS011;68929;42.666;23.324;2023-08-30T08:20:54;8.75;;;4.28;;
79460;SDS011;68929;42.666;23.324;2023-08-30T08:23:19;4.85;;;3.33;;
79460;SDS011;68929;42.666;23.324;2023-08-30T08:25:44;7.20;;;4.53;;
79460;SDS011;68929;42.666;23.324;2023-08-30T08:28:10;8.25;;;4.18;;
79460;SDS011;68929;42.666;23.324;2023-08-30T08:30:36;11.32;;;4.70;;
79460;SDS011;68929;42.666;23.324;2023-08-30T08:33:01;10.00;;;4.28;;
79460;SDS011;68929;42.666;23.324;2023-08-30T08:35:26;7.82;;;3.80;;
79460;SDS011;68929;42.666;23.324;2023-08-30T08:37:52;7.70;;;3.72;;
79460;SDS011;68929;42.666;23.324;2023-08-30T08:40:17;6.72;;;4.13;;
79460;SDS011;68929;42.666;23.324;2023-08-30T08:42:43;7.75;;;4.25;;
79460;SDS011;68929;42.666;23.324;2023-08-30T08:45:10;7.18;;;4.40;;
79460;SDS011;68929;42.666;23.324;2023-08-30T08:47:36;7.55;;;4.47;;
79460;SDS011;68929;42.666;23.324;2023-08-30T08:50:02;8.85;;;4.75;;
79460;SDS011;68929;42.666;23.324;2023-08-30T08:52:28;9.50;;;4.88;;
79460;SDS011;68929;42.666;23.324;2023-08-30T08:54:54;10.25;;;4.95;;
79460;SDS011;68929;42.666;23.324;2023-08-30T08:57:20;8.18;;;4.75;;
79460;SDS011;68929;42.666;23.324;2023-08-30T08:59:46;10.18;;;4.53;;
79460;SDS011;68929;42.666;23.324;2023-08-30T09:02:12;5.93;;;4.00;;
79460;SDS011;68929;42.666;23.324;2023-08-30T09:04:39;8.15;;;4.70;;
79460;SDS011;68929;42.666;23.324;2023-08-30T09:07:05;11.43;;;4.88;;
79460;SDS011;68929;42.666;23.324;2023-08-30T09:09:30;5.93;;;4.18;;
79460;SDS011;68929;42.666;23.324;2023-08-30T09:11:56;8.88;;;4.50;;
79460;SDS011;68929;42.666;23.324;2023-08-30T09:14:21;5.53;;;4.10;;
79460;SDS011;68929;42.666;23.324;2023-08-30T09:16:54;9.55;;;4.82;;
79460;SDS011;68929;42.666;23.324;2023-08-30T09:19:23;5.55;;;4.18;;
79460;SDS011;68929;42.666;23.324;2023-08-30T09:21:52;8.43;;;4.15;;
79460;SDS011;68929;42.666;23.324;2023-08-30T09:24:18;7.43;;;3.97;;
79460;SDS011;68929;42.666;23.324;2023-08-30T09:26:47;10.38;;;4.75;;
79460;SDS011;68929;42.666;23.324;2023-08-30T09:29:15;6.77;;;3.87;;
79460;SDS011;68929;42.666;23.324;2023-08-30T09:31:42;7.85;;;4.20;;
79460;SDS011;68929;42.666;23.324;2023-08-30T09:34:07;8.50;;;4.35;;
79460;SDS011;68929;42.666;23.324;2023-08-30T09:36:40;10.90;;;4.80;;
79460;SDS011;68929;42.666;23.324;2023-08-30T09:39:12;9.57;;;4.53;;
79460;SDS011;68929;42.666;23.324;2023-08-30T09:41:43;11.07;;;4.78;;
79460;SDS011;68929;42.666;23.324;2023-08-30T09:44:12;7.47;;;5.30;;
79460;SDS011;68929;42.666;23.324;2023-08-30T09:49:23;8.73;;;5.03;;
79460;SDS011;68929;42.666;23.324;2023-08-30T09:51:51;10.10;;;5.15;;
79460;SDS011;68929;42.666;23.324;2023-08-30T09:54:21;5.20;;;4.47;;
79460;SDS011;68929;42.666;23.324;2023-08-30T09:56:49;8.48;;;5.25;;
79460;SDS011;68929;42.666;23.324;2023-08-30T09:59:18;8.23;;;4.53;;
79460;SDS011;68929;42.666;23.324;2023-08-30T10:01:44;10.05;;;5.00;;
79460;SDS011;68929;42.666;23.324;2023-08-30T10:04:11;8.10;;;4.47;;
79460;SDS011;68929;42.666;23.324;2023-08-30T10:06:37;9.05;;;5.50;;
79460;SDS011;68929;42.666;23.324;2023-08-30T10:09:03;10.38;;;5.13;;
79460;SDS011;68929;42.666;23.324;2023-08-30T10:11:32;5.47;;;4.20;;
79460;SDS011;68929;42.666;23.324;2023-08-30T10:13:59;7.60;;;4.57;;
79460;SDS011;68929;42.666;23.324;2023-08-30T10:16:26;8.05;;;4.68;;
79460;SDS011;68929;42.666;23.324;2023-08-30T10:18:54;5.10;;;4.55;;
79460;SDS011;68929;42.666;23.324;2023-08-30T10:21:27;6.60;;;4.60;;
79460;SDS011;68929;42.666;23.324;2023-08-30T10:23:54;9.65;;;5.20;;
79460;SDS011;68929;42.666;23.324;2023-08-30T10:26:22;10.90;;;5.30;;
79460;SDS011;68929;42.666;23.324;2023-08-30T10:28:49;12.35;;;5.30;;
79460;SDS011;68929;42.666;23.324;2023-08-30T10:31:17;10.55;;;5.38;;
79460;SDS011;68929;42.666;23.324;2023-08-30T10:34:16;10.10;;;5.63;;
79460;SDS011;68929;42.666;23.324;2023-08-30T10:36:55;11.23;;;5.65;;
79460;SDS011;68929;42.666;23.324;2023-08-30T10:39:40;7.57;;;5.30;;
79460;SDS011;68929;42.666;23.324;2023-08-30T10:42:10;6.72;;;4.93;;
79460;SDS011;68929;42.666;23.324;2023-08-30T10:44:48;9.55;;;4.97;;
79460;SDS011;68929;42.666;23.324;2023-08-30T10:47:22;9.10;;;5.13;;
79460;SDS011;68929;42.666;23.324;2023-08-30T10:49:50;7.53;;;6.03;;
79460;SDS011;68929;42.666;23.324;2023-08-30T10:52:20;6.13;;;4.68;;
79460;SDS011;68929;42.666;23.324;2023-08-30T10:54:46;6.15;;;4.65;;
79460;SDS011;68929;42.666;23.324;2023-08-30T10:57:12;9.65;;;5.65;;
79460;SDS011;68929;42.666;23.324;2023-08-30T10:59:39;11.90;;;5.65;;
79460;SDS011;68929;42.666;23.324;2023-08-30T11:02:05;13.63;;;5.60;;
79460;SDS011;68929;42.666;23.324;2023-08-30T11:04:31;5.75;;;4.53;;
79460;SDS011;68929;42.666;23.324;2023-08-30T11:06:56;7.25;;;5.40;;
79460;SDS011;68929;42.666;23.324;2023-08-30T11:09:23;12.43;;;5.43;;
79460;SDS011;68929;42.666;23.324;2023-08-30T11:11:50;10.52;;;5.40;;
79460;SDS011;68929;42.666;23.324;2023-08-30T11:14:16;6.40;;;5.22;;
79460;SDS011;68929;42.666;23.324;2023-08-30T11:16:43;7.75;;;5.85;;
79460;SDS011;68929;42.666;23.324;2023-08-30T11:19:09;6.70;;;4.60;;
79460;SDS011;68929;42.666;23.324;2023-08-30T11:21:36;9.57;;;5.88;;
79460;SDS011;68929;42.666;23.324;2023-08-30T11:24:04;8.38;;;6.18;;
79460;SDS011;68929;42.666;23.324;2023-08-30T11:26:30;11.68;;;5.28;;
79460;SDS011;68929;42.666;23.324;2023-08-30T11:28:56;8.95;;;5.35;;
79460;SDS011;68929;42.666;23.324;2023-08-30T11:31:22;10.32;;;5.20;;
79460;SDS011;68929;42.666;23.324;2023-08-30T11:33:58;8.23;;;5.60;;
79460;SDS011;68929;42.666;23.324;2023-08-30T11:36:28;5.65;;;4.30;;
79460;SDS011;68929;42.666;23.324;2023-08-30T11:38:55;8.23;;;5.22;;
79460;SDS011;68929;42.666;23.324;2023-08-30T11:41:22;6.47;;;4.88;;
79460;SDS011;68929;42.666;23.324;2023-08-30T11:43:48;9.43;;;4.80;;
79460;SDS011;68929;42.666;23.324;2023-08-30T11:46:14;6.95;;;4.85;;
79460;SDS011;68929;42.666;23.324;2023-08-30T11:48:40;8.20;;;5.07;;
79460;SDS011;68929;42.666;23.324;2023-08-30T11:51:06;7.20;;;5.10;;
79460;SDS011;68929;42.666;23.324;2023-08-30T11:53:32;9.50;;;5.07;;
79460;SDS011;68929;42.666;23.324;2023-08-30T11:55:59;9.52;;;5.00;;
79460;SDS011;68929;42.666;23.324;2023-08-30T11:58:24;11.77;;;5.70;;
79460;SDS011;68929;42.666;23.324;2023-08-30T12:00:50;9.65;;;5.65;;
79460;SDS011;68929;42.666;23.324;2023-08-30T12:03:19;7.05;;;5.93;;
79460;SDS011;68929;42.666;23.324;2023-08-30T12:05:48;7.63;;;5.72;;
79460;SDS011;68929;42.666;23.324;2023-08-30T12:10:51;7.00;;;4.95;;
79460;SDS011;68929;42.666;23.324;2023-08-30T12:13:20;6.30;;;4.45;;
79460;SDS011;68929;42.666;23.324;2023-08-30T12:15:46;6.65;;;5.10;;
79460;SDS011;68929;42.666;23.324;2023-08-30T12:18:12;8.52;;;5.97;;
79460;SDS011;68929;42.666;23.324;2023-08-30T12:20:37;8.10;;;5.70;;
79460;SDS011;68929;42.666;23.324;2023-08-30T12:23:02;8.00;;;6.00;;
79460;SDS011;68929;42.666;23.324;2023-08-30T12:25:28;6.25;;;5.55;;
79460;SDS011;68929;42.666;23.324;2023-08-30T12:27:55;8.65;;;5.82;;
79460;SDS011;68929;42.666;23.324;2023-08-30T12:30:21;9.02;;;4.50;;
79460;SDS011;68929;42.666;23.324;2023-08-30T12:32:49;6.05;;;4.93;;
79460;SDS011;68929;42.666;23.324;2023-08-30T12:35:16;8.55;;;6.10;;
79460;SDS011;68929;42.666;23.324;2023-08-30T12:37:42;8.30;;;6.03;;
79460;SDS011;68929;42.666;23.324;2023-08-30T12:40:08;10.05;;;6.38;;
79460;SDS011;68929;42.666;23.324;2023-08-30T12:42:34;6.72;;;5.53;;
79460;SDS011;68929;42.666;23.324;2023-08-30T12:44:59;6.47;;;5.70;;
79460;SDS011;68929;42.666;23.324;2023-08-30T12:47:25;8.40;;;6.05;;
79460;SDS011;68929;42.666;23.324;2023-08-30T12:49:51;6.70;;;5.50;;
79460;SDS011;68929;42.666;23.324;2023-08-30T12:52:16;9.85;;;6.20;;
79460;SDS011;68929;42.666;23.324;2023-08-30T12:54:42;7.25;;;5.93;;
79460;SDS011;68929;42.666;23.324;2023-08-30T12:57:07;11.88;;;6.43;;
79460;SDS011;68929;42.666;23.324;2023-08-30T12:59:33;11.43;;;6.13;;
79460;SDS011;68929;42.666;23.324;2023-08-30T13:01:58;12.27;;;5.55;;
79460;SDS011;68929;42.666;23.324;2023-08-30T13:04:24;5.70;;;4.75;;
79460;SDS011;68929;42.666;23.324;2023-08-30T13:06:49;8.23;;;5.07;;
79460;SDS011;68929;42.666;23.324;2023-08-30T13:09:16;10.77;;;5.43;;
79460;SDS011;68929;42.666;23.324;2023-08-30T13:11:41;7.78;;;5.05;;
79460;SDS011;68929;42.666;23.324;2023-08-30T13:14:07;7.43;;;5.22;;
79460;SDS011;68929;42.666;23.324;2023-08-30T13:16:32;12.57;;;5.17;;
79460;SDS011;68929;42.666;23.324;2023-08-30T13:18:58;8.63;;;5.13;;
79460;SDS011;68929;42.666;23.324;2023-08-30T13:21:23;7.03;;;5.15;;
79460;SDS011;68929;42.666;23.324;2023-08-30T13:23:54;6.75;;;5.30;;
79460;SDS011;68929;42.666;23.324;2023-08-30T13:26:21;5.97;;;4.40;;
79460;SDS011;68929;42.666;23.324;2023-08-30T13:28:46;7.13;;;4.80;;
79460;SDS011;68929;42.666;23.324;2023-08-30T13:31:12;5.20;;;4.70;;
79460;SDS011;68929;42.666;23.324;2023-08-30T13:33:37;6.50;;;4.65;;
79460;SDS011;68929;42.666;23.324;2023-08-30T13:36:02;6.50;;;5.38;;
79460;SDS011;68929;42.666;23.324;2023-08-30T13:38:28;5.82;;;4.80;;
79460;SDS011;68929;42.666;23.324;2023-08-30T13:41:00;5.22;;;4.70;;
79460;SDS011;68929;42.666;23.324;2023-08-30T13:43:25;7.88;;;4.45;;
79460;SDS011;68929;42.666;23.324;2023-08-30T13:46:00;7.10;;;4.78;;
79460;SDS011;68929;42.666;23.324;2023-08-30T13:48:25;7.30;;;4.95;;
79460;SDS011;68929;42.666;23.324;2023-08-30T13:50:51;8.45;;;4.95;;
79460;SDS011;68929;42.666;23.324;2023-08-30T13:53:17;6.60;;;4.55;;
79460;SDS011;68929;42.666;23.324;2023-08-30T13:55:46;9.68;;;4.82;;
79460;SDS011;68929;42.666;23.324;2023-08-30T13:58:15;5.18;;;4.18;;
79460;SDS011;68929;42.666;23.324;2023-08-30T14:00:41;6.07;;;4.43;;
79460;SDS011;68929;42.666;23.324;2023-08-30T14:03:06;6.22;;;4.53;;
79460;SDS011;68929;42.666;23.324;2023-08-30T14:05:33;6.60;;;5.03;;
79460;SDS011;68929;42.666;23.324;2023-08-30T14:07:58;8.88;;;5.45;;
79460;SDS011;68929;42.666;23.324;2023-08-30T14:10:24;5.70;;;4.60;;
79460;SDS011;68929;42.666;23.324;2023-08-30T14:12:49;7.45;;;5.38;;
79460;SDS011;68929;42.666;23.324;2023-08-30T14:15:14;6.55;;;4.78;;
79460;SDS011;68929;42.666;23.324;2023-08-30T14:17:41;5.63;;;4.13;;
79460;SDS011;68929;42.666;23.324;2023-08-30T14:20:06;5.13;;;4.22;;
79460;SDS011;68929;42.666;23.324;2023-08-30T14:22:32;6.97;;;4.70;;
79460;SDS011;68929;42.666;23.324;2023-08-30T14:24:58;8.38;;;4.80;;
79460;SDS011;68929;42.666;23.324;2023-08-30T14:27:23;6.38;;;4.28;;
79460;SDS011;68929;42.666;23.324;2023-08-30T14:29:48;12.00;;;4.65;;
79460;SDS011;68929;42.666;23.324;2023-08-30T14:32:14;7.28;;;4.28;;
79460;SDS011;68929;42.666;23.324;2023-08-30T14:34:39;6.78;;;4.13;;
79460;SDS011;68929;42.666;23.324;2023-08-30T14:37:05;7.00;;;4.00;;
79460;SDS011;68929;42.666;23.324;2023-08-30T14:39:30;5.80;;;4.28;;
79460;SDS011;68929;42.666;23.324;2023-08-30T14:41:55;6.38;;;3.70;;
79460;SDS011;68929;42.666;23.324;2023-08-30T14:44:21;4.57;;;3.53;;
79460;SDS011;68929;42.666;23.324;2023-08-30T14:46:46;7.07;;;4.05;;